Time;durP1;ratioP1;P1;durP2;ratioP2;P2;SDS_P1;SDS_P2;PMS_P1;PMS_P2;Temp;Humidity;BMP_temperature;BMP_pressure;BME280_temperature;BME280_humidity;BME280_pressure;Samples;Min_cycle;Max_cycle;Signal;HPM_P1;HPM_P2
2023/08/16 00:02:07;;;;;;;9.68;4.65;;;;;;;;;;5034426;28;20045;-68
2023/08/16 00:04:33;;;;;;;8.98;5.00;;;;;;;;;;5035186;28;20091;-69
2023/08/16 00:06:59;;;;;;;10.98;4.72;;;;;;;;;;5033939;28;20085;-68
2023/08/16 00:09:25;;;;;;;15.57;4.55;;;;;;;;;;5035571;28;21032;-68
2023/08/16 00:11:51;;;;;;;15.05;4.60;;;;;;;;;;5035486;28;20052;-68
2023/08/16 00:14:17;;;;;;;10.18;4.82;;;;;;;;;;5034266;28;20112;-68
2023/08/16 00:16:43;;;;;;;9.27;4.40;;;;;;;;;;5017537;28;20048;-68
2023/08/16 00:19:08;;;;;;;9.20;4.57;;;;;;;;;;5034855;28;20460;-69
2023/08/16 00:21:34;;;;;;;11.15;4.50;;;;;;;;;;5034071;28;20518;-69
2023/08/16 00:23:59;;;;;;;10.75;4.28;;;;;;;;;;5034180;28;20038;-69
2023/08/16 00:26:25;;;;;;;7.20;4.25;;;;;;;;;;5033902;28;20041;-69
2023/08/16 00:28:53;;;;;;;11.48;4.35;;;;;;;;;;5017375;28;20082;-69
2023/08/16 00:31:19;;;;;;;8.60;4.13;;;;;;;;;;5034942;28;20509;-69
2023/08/16 00:33:44;;;;;;;11.48;4.45;;;;;;;;;;5034188;28;20075;-69
2023/08/16 00:36:11;;;;;;;9.93;4.90;;;;;;;;;;5035810;28;20138;-69
2023/08/16 00:38:42;;;;;;;10.70;4.22;;;;;;;;;;5034674;28;20080;-69
2023/08/16 00:41:11;;;;;;;8.75;4.35;;;;;;;;;;5035583;28;20034;-69
2023/08/16 00:43:37;;;;;;;10.52;4.70;;;;;;;;;;5034622;28;20056;-69
2023/08/16 00:46:03;;;;;;;8.77;4.13;;;;;;;;;;5035162;28;20128;-69
2023/08/16 00:48:30;;;;;;;10.50;4.03;;;;;;;;;;5036072;28;20396;-69
2023/08/16 00:50:56;;;;;;;9.80;4.43;;;;;;;;;;5036165;28;20037;-69
2023/08/16 00:53:22;;;;;;;13.65;4.40;;;;;;;;;;5018423;28;20040;-69
2023/08/16 00:55:48;;;;;;;8.65;4.10;;;;;;;;;;5033633;28;20630;-69
2023/08/16 00:58:15;;;;;;;7.68;4.03;;;;;;;;;;5035034;28;20056;-69
2023/08/16 01:00:41;;;;;;;12.50;4.72;;;;;;;;;;5034345;28;20101;-69
2023/08/16 01:03:06;;;;;;;9.38;4.20;;;;;;;;;;5036388;28;20084;-69
2023/08/16 01:05:32;;;;;;;9.63;4.07;;;;;;;;;;5037647;28;20041;-68
2023/08/16 01:07:58;;;;;;;10.85;4.00;;;;;;;;;;5036786;28;20464;-68
2023/08/16 01:10:28;;;;;;;9.18;3.95;;;;;;;;;;5036326;28;20040;-72
2023/08/16 01:12:57;;;;;;;11.43;4.15;;;;;;;;;;5036156;28;20045;-69
2023/08/16 01:15:26;;;;;;;8.27;4.15;;;;;;;;;;5036979;28;20045;-68
2023/08/16 01:17:53;;;;;;;8.40;4.30;;;;;;;;;;5036385;28;20036;-69
2023/08/16 01:20:21;;;;;;;7.72;3.78;;;;;;;;;;5036156;28;20092;-69
2023/08/16 01:22:57;;;;;;;7.72;3.92;;;;;;;;;;5016927;28;20155;-69
2023/08/16 01:25:29;;;;;;;12.50;4.10;;;;;;;;;;5034049;28;20037;-69
2023/08/16 01:27:55;;;;;;;8.20;4.32;;;;;;;;;;5033816;28;20131;-69
2023/08/16 01:30:21;;;;;;;10.55;3.85;;;;;;;;;;5000088;28;20041;-69
2023/08/16 01:32:47;;;;;;;8.95;4.07;;;;;;;;;;5016114;28;20037;-69
2023/08/16 01:35:16;;;;;;;10.52;4.13;;;;;;;;;;5033571;28;20095;-69
2023/08/16 01:37:42;;;;;;;9.38;4.68;;;;;;;;;;5032523;28;20084;-68
2023/08/16 01:40:10;;;;;;;10.55;4.40;;;;;;;;;;5016111;28;20464;-69
2023/08/16 01:42:39;;;;;;;8.63;3.78;;;;;;;;;;5015919;28;20071;-69
2023/08/16 01:45:05;;;;;;;8.88;3.85;;;;;;;;;;5032388;28;20048;-69
2023/08/16 01:47:31;;;;;;;9.68;4.10;;;;;;;;;;5033545;28;20103;-69
2023/08/16 01:49:57;;;;;;;10.25;4.20;;;;;;;;;;5033444;28;20037;-69
2023/08/16 01:52:25;;;;;;;10.07;4.25;;;;;;;;;;5032069;28;20076;-68
2023/08/16 01:54:50;;;;;;;8.00;4.00;;;;;;;;;;5032874;28;20041;-69
2023/08/16 01:57:16;;;;;;;9.45;4.15;;;;;;;;;;5032327;28;20090;-69
2023/08/16 01:59:42;;;;;;;7.10;4.10;;;;;;;;;;5032041;28;20388;-69
2023/08/16 02:02:07;;;;;;;9.48;4.47;;;;;;;;;;5031978;28;20053;-69
2023/08/16 02:04:33;;;;;;;10.80;3.72;;;;;;;;;;5015392;28;20037;-68
2023/08/16 02:06:58;;;;;;;9.90;4.03;;;;;;;;;;5033137;28;20037;-69
2023/08/16 02:09:25;;;;;;;12.40;3.92;;;;;;;;;;5015390;28;20056;-69
2023/08/16 02:11:52;;;;;;;8.48;3.85;;;;;;;;;;5031123;28;20223;-69
2023/08/16 02:14:17;;;;;;;8.13;4.07;;;;;;;;;;5031921;28;20052;-69
2023/08/16 02:16:43;;;;;;;8.57;4.20;;;;;;;;;;5015478;28;20033;-69
2023/08/16 02:19:29;;;;;;;7.85;4.20;;;;;;;;;;5018163;28;20048;-69
2023/08/16 02:21:54;;;;;;;10.05;3.78;;;;;;;;;;5015332;28;20025;-69
2023/08/16 02:24:20;;;;;;;9.88;4.45;;;;;;;;;;5015400;28;20293;-68
2023/08/16 02:26:46;;;;;;;7.32;4.05;;;;;;;;;;5031351;28;20388;-68
2023/08/16 02:29:11;;;;;;;9.23;4.68;;;;;;;;;;5032516;28;20037;-69
2023/08/16 02:31:37;;;;;;;12.32;4.40;;;;;;;;;;5031596;28;20369;-69
2023/08/16 02:34:03;;;;;;;11.23;4.18;;;;;;;;;;5031764;28;20136;-69
2023/08/16 02:36:28;;;;;;;8.43;4.28;;;;;;;;;;5031833;28;20037;-69
2023/08/16 02:38:55;;;;;;;9.60;4.20;;;;;;;;;;5032051;28;20206;-69
2023/08/16 02:41:23;;;;;;;9.45;4.10;;;;;;;;;;5015297;28;20392;-69
2023/08/16 02:43:49;;;;;;;9.50;4.20;;;;;;;;;;5032405;28;20049;-69
2023/08/16 02:46:15;;;;;;;11.25;4.95;;;;;;;;;;5032639;28;20038;-69
2023/08/16 02:48:41;;;;;;;8.98;4.20;;;;;;;;;;5015142;28;20486;-68
2023/08/16 02:51:06;;;;;;;11.18;4.47;;;;;;;;;;5031147;28;20036;-69
2023/08/16 02:53:32;;;;;;;12.23;4.68;;;;;;;;;;5032384;28;20133;-69
2023/08/16 02:55:58;;;;;;;9.68;4.25;;;;;;;;;;5015078;28;20467;-69
2023/08/16 02:58:24;;;;;;;11.95;4.25;;;;;;;;;;5014568;28;20434;-69
2023/08/16 03:00:53;;;;;;;8.38;3.90;;;;;;;;;;5030988;28;20037;-69
2023/08/16 03:03:19;;;;;;;10.32;4.25;;;;;;;;;;5031264;28;20056;-69
2023/08/16 03:05:44;;;;;;;7.35;3.92;;;;;;;;;;5032219;28;20415;-69
2023/08/16 03:08:10;;;;;;;8.15;4.30;;;;;;;;;;5014397;28;20506;-69
2023/08/16 03:10:36;;;;;;;7.88;4.25;;;;;;;;;;5032078;28;20037;-69
2023/08/16 03:13:02;;;;;;;11.75;4.00;;;;;;;;;;5032929;28;20057;-68
2023/08/16 03:15:28;;;;;;;8.32;3.90;;;;;;;;;;5033009;28;20736;-69
2023/08/16 03:17:54;;;;;;;13.18;4.18;;;;;;;;;;5033622;28;20029;-70
2023/08/16 03:20:20;;;;;;;13.20;4.13;;;;;;;;;;5015314;28;20103;-70
2023/08/16 03:22:45;;;;;;;12.65;4.53;;;;;;;;;;5031220;28;20185;-69
2023/08/16 03:25:14;;;;;;;11.98;4.60;;;;;;;;;;5034962;28;20037;-69
2023/08/16 03:27:40;;;;;;;8.10;3.92;;;;;;;;;;5034647;28;20075;-69
2023/08/16 03:30:06;;;;;;;11.88;4.05;;;;;;;;;;5034566;28;20134;-69
2023/08/16 03:32:33;;;;;;;17.65;5.93;;;;;;;;;;5034594;28;20065;-69
2023/08/16 03:35:00;;;;;;;11.75;5.40;;;;;;;;;;5002455;28;20033;-69
2023/08/16 03:37:26;;;;;;;13.45;5.75;;;;;;;;;;5035432;28;20029;-69
2023/08/16 03:39:52;;;;;;;14.88;5.22;;;;;;;;;;5018044;28;20037;-69
2023/08/16 03:42:18;;;;;;;12.15;5.05;;;;;;;;;;5034733;28;20120;-68
2023/08/16 03:44:43;;;;;;;19.55;5.75;;;;;;;;;;5035524;28;20140;-69
2023/08/16 03:47:09;;;;;;;13.40;4.70;;;;;;;;;;5034496;28;20037;-68
2023/08/16 03:49:35;;;;;;;11.85;5.20;;;;;;;;;;5035804;28;20045;-69
2023/08/16 03:52:03;;;;;;;9.27;4.47;;;;;;;;;;5034654;28;20053;-69
2023/08/16 03:54:28;;;;;;;9.27;4.63;;;;;;;;;;5017786;28;20393;-69
2023/08/16 03:56:56;;;;;;;9.98;4.72;;;;;;;;;;5035025;28;20068;-69
2023/08/16 03:59:22;;;;;;;10.57;4.50;;;;;;;;;;5034150;28;20041;-70
2023/08/16 04:01:48;;;;;;;7.70;4.20;;;;;;;;;;5017901;28;20029;-69
2023/08/16 04:04:14;;;;;;;10.07;4.75;;;;;;;;;;5001053;28;20155;-69
2023/08/16 04:06:39;;;;;;;13.93;4.50;;;;;;;;;;5034718;28;20029;-69
2023/08/16 04:09:06;;;;;;;7.95;4.43;;;;;;;;;;5035352;28;20336;-69
2023/08/16 04:11:32;;;;;;;9.02;4.60;;;;;;;;;;5035041;28;20568;-69
2023/08/16 04:13:58;;;;;;;7.20;4.65;;;;;;;;;;5033960;28;20153;-69
2023/08/16 04:16:23;;;;;;;8.70;4.80;;;;;;;;;;5033805;28;20094;-70
2023/08/16 04:18:53;;;;;;;12.23;4.75;;;;;;;;;;5017338;28;20049;-69
2023/08/16 04:21:21;;;;;;;9.48;4.28;;;;;;;;;;5001318;28;20102;-69
2023/08/16 04:23:49;;;;;;;7.72;4.03;;;;;;;;;;5017390;28;20542;-69
2023/08/16 04:26:15;;;;;;;13.52;4.85;;;;;;;;;;5033965;28;20076;-69
2023/08/16 04:28:40;;;;;;;11.63;4.40;;;;;;;;;;5033741;28;20041;-69
2023/08/16 04:31:06;;;;;;;10.30;4.88;;;;;;;;;;5034038;28;20056;-69
2023/08/16 04:33:32;;;;;;;11.82;5.45;;;;;;;;;;5033508;28;20044;-69
2023/08/16 04:35:58;;;;;;;9.50;4.97;;;;;;;;;;5034261;28;20045;-69
2023/08/16 04:38:24;;;;;;;11.23;4.65;;;;;;;;;;5033749;28;20060;-68
2023/08/16 04:40:50;;;;;;;14.20;4.50;;;;;;;;;;5017437;28;20053;-69
2023/08/16 04:43:16;;;;;;;8.35;4.03;;;;;;;;;;5016754;28;20132;-69
2023/08/16 04:45:43;;;;;;;9.30;4.25;;;;;;;;;;5033454;28;20424;-69
2023/08/16 04:48:09;;;;;;;9.80;3.72;;;;;;;;;;5016953;28;20056;-69
2023/08/16 04:50:35;;;;;;;8.68;4.13;;;;;;;;;;5033589;28;20049;-69
2023/08/16 04:53:02;;;;;;;9.27;3.80;;;;;;;;;;5016393;28;20056;-69
2023/08/16 04:55:28;;;;;;;13.57;4.10;;;;;;;;;;5033190;28;20452;-69
2023/08/16 04:57:54;;;;;;;8.30;3.75;;;;;;;;;;5017280;28;20120;-69
2023/08/16 05:00:20;;;;;;;10.60;3.50;;;;;;;;;;5016955;28;20041;-69
2023/08/16 05:02:53;;;;;;;11.38;3.60;;;;;;;;;;5033590;28;20025;-69
2023/08/16 05:05:19;;;;;;;7.63;3.17;;;;;;;;;;5017125;28;20037;-69
2023/08/16 05:07:44;;;;;;;4.78;2.95;;;;;;;;;;5018414;28;20084;-69
2023/08/16 05:10:13;;;;;;;8.40;3.45;;;;;;;;;;5034171;28;20468;-69
2023/08/16 05:12:39;;;;;;;6.38;2.90;;;;;;;;;;5034581;28;20447;-69
2023/08/16 05:15:06;;;;;;;9.15;3.13;;;;;;;;;;5033454;28;20030;-70
2023/08/16 05:17:31;;;;;;;9.90;3.08;;;;;;;;;;5032507;28;20132;-69
2023/08/16 05:19:57;;;;;;;5.70;2.90;;;;;;;;;;5032932;28;20132;-69
2023/08/16 05:22:24;;;;;;;5.65;2.95;;;;;;;;;;5016338;28;20029;-70
2023/08/16 05:24:51;;;;;;;6.68;3.20;;;;;;;;;;5033472;28;20507;-70
2023/08/16 05:27:16;;;;;;;4.35;2.55;;;;;;;;;;5016239;28;20030;-69
2023/08/16 05:29:42;;;;;;;7.38;2.70;;;;;;;;;;5032399;28;20039;-69
2023/08/16 05:32:09;;;;;;;6.03;2.63;;;;;;;;;;5033501;28;20136;-69
2023/08/16 05:34:35;;;;;;;10.50;3.60;;;;;;;;;;5033277;28;20041;-69
2023/08/16 05:37:00;;;;;;;8.32;2.47;;;;;;;;;;5032609;28;20174;-69
2023/08/16 05:39:26;;;;;;;5.65;2.60;;;;;;;;;;5032427;28;20065;-69
2023/08/16 05:41:52;;;;;;;12.35;2.88;;;;;;;;;;5032347;28;20076;-69
2023/08/16 05:44:17;;;;;;;5.70;2.55;;;;;;;;;;5015808;28;20391;-69
2023/08/16 05:46:43;;;;;;;7.53;2.90;;;;;;;;;;5032414;28;20457;-69
2023/08/16 05:49:08;;;;;;;6.32;2.83;;;;;;;;;;5016383;28;20041;-69
2023/08/16 05:51:34;;;;;;;6.72;2.63;;;;;;;;;;5032821;28;20064;-69
2023/08/16 05:54:01;;;;;;;4.90;2.60;;;;;;;;;;5033251;28;20199;-69
2023/08/16 05:56:26;;;;;;;11.45;2.70;;;;;;;;;;4999294;28;20065;-69
2023/08/16 05:58:52;;;;;;;5.72;2.35;;;;;;;;;;5032490;28;20087;-69
2023/08/16 06:01:18;;;;;;;7.40;2.28;;;;;;;;;;5033296;28;20102;-69
2023/08/16 06:03:43;;;;;;;7.43;2.50;;;;;;;;;;4999347;28;20037;-69
2023/08/16 06:06:09;;;;;;;9.90;3.20;;;;;;;;;;5032876;28;20409;-69
2023/08/16 06:08:34;;;;;;;10.18;3.80;;;;;;;;;;5032626;28;20461;-69
2023/08/16 06:11:01;;;;;;;9.88;2.90;;;;;;;;;;5031915;28;20120;-69
2023/08/16 06:13:27;;;;;;;5.95;2.50;;;;;;;;;;4998964;28;20454;-69
2023/08/16 06:15:52;;;;;;;6.38;2.60;;;;;;;;;;4998782;28;20124;-70
2023/08/16 06:18:18;;;;;;;4.50;2.30;;;;;;;;;;5032512;28;20341;-69
2023/08/16 06:20:44;;;;;;;5.05;2.30;;;;;;;;;;5015303;28;20052;-69
2023/08/16 06:23:10;;;;;;;6.25;2.30;;;;;;;;;;5031517;28;20132;-69
2023/08/16 06:25:36;;;;;;;9.32;2.85;;;;;;;;;;5032348;28;20052;-69
2023/08/16 06:28:03;;;;;;;7.90;2.15;;;;;;;;;;5031624;28;20057;-69
2023/08/16 06:30:29;;;;;;;6.38;2.00;;;;;;;;;;5031482;28;20099;-69
2023/08/16 06:32:54;;;;;;;5.03;2.30;;;;;;;;;;5014728;28;20107;-69
2023/08/16 06:35:20;;;;;;;8.00;2.25;;;;;;;;;;5032354;28;20033;-69
2023/08/16 06:37:46;;;;;;;7.45;2.63;;;;;;;;;;5032249;28;20043;-69
2023/08/16 06:40:12;;;;;;;4.93;2.60;;;;;;;;;;5031481;28;20048;-69
2023/08/16 06:42:41;;;;;;;8.07;1.98;;;;;;;;;;5032066;28;20505;-69
2023/08/16 06:45:08;;;;;;;5.85;1.83;;;;;;;;;;5032224;28;20034;-69
2023/08/16 06:47:33;;;;;;;2.85;2.00;;;;;;;;;;5031995;28;20039;-69
2023/08/16 06:49:59;;;;;;;8.25;2.00;;;;;;;;;;5030996;28;20375;-69
2023/08/16 06:52:24;;;;;;;6.07;2.20;;;;;;;;;;5014790;28;20048;-69
2023/08/16 06:54:50;;;;;;;4.63;2.00;;;;;;;;;;5031231;28;20037;-69
2023/08/16 06:57:16;;;;;;;9.25;2.22;;;;;;;;;;5031391;28;20029;-70
2023/08/16 06:59:41;;;;;;;7.32;2.13;;;;;;;;;;5031123;28;20478;-69
2023/08/16 07:02:10;;;;;;;15.90;2.20;;;;;;;;;;5031205;28;20037;-70
2023/08/16 07:04:38;;;;;;;9.35;2.38;;;;;;;;;;5031074;28;20460;-69
2023/08/16 07:07:04;;;;;;;4.53;1.95;;;;;;;;;;5032389;28;20128;-69
2023/08/16 07:09:30;;;;;;;6.05;1.98;;;;;;;;;;4998828;28;20037;-69
2023/08/16 07:11:56;;;;;;;5.70;2.20;;;;;;;;;;5030974;28;20506;-69
2023/08/16 07:14:21;;;;;;;6.85;2.65;;;;;;;;;;5031951;28;20037;-69
2023/08/16 07:16:47;;;;;;;7.13;1.98;;;;;;;;;;5014973;28;20041;-69
2023/08/16 07:19:13;;;;;;;6.40;2.25;;;;;;;;;;5031312;28;20096;-69
2023/08/16 07:21:39;;;;;;;8.90;1.83;;;;;;;;;;5030834;28;20045;-70
2023/08/16 07:24:04;;;;;;;6.95;2.15;;;;;;;;;;5031886;28;20045;-69
2023/08/16 07:26:30;;;;;;;6.85;2.20;;;;;;;;;;5031695;28;20053;-70
2023/08/16 07:28:56;;;;;;;7.03;2.13;;;;;;;;;;5031689;28;20115;-70
2023/08/16 07:31:22;;;;;;;4.47;2.30;;;;;;;;;;5031498;28;20440;-70
2023/08/16 07:33:48;;;;;;;3.83;1.88;;;;;;;;;;5031930;28;20061;-70
2023/08/16 07:36:14;;;;;;;3.08;1.70;;;;;;;;;;5031812;28;20455;-70
2023/08/16 07:38:40;;;;;;;6.18;1.33;;;;;;;;;;5031170;28;20091;-70
2023/08/16 07:41:07;;;;;;;4.93;1.80;;;;;;;;;;5031402;28;20041;-71
2023/08/16 07:43:33;;;;;;;6.35;1.40;;;;;;;;;;5031375;28;20044;-70
2023/08/16 07:45:58;;;;;;;4.25;2.42;;;;;;;;;;5031727;28;20037;-72
2023/08/16 07:48:24;;;;;;;7.55;1.98;;;;;;;;;;5031348;28;20068;-70
2023/08/16 07:50:50;;;;;;;5.20;1.50;;;;;;;;;;5030582;28;20044;-71
2023/08/16 07:53:15;;;;;;;3.47;1.48;;;;;;;;;;5014557;28;20049;-71
2023/08/16 07:55:41;;;;;;;5.75;1.58;;;;;;;;;;5031372;28;20388;-71
2023/08/16 07:58:07;;;;;;;7.75;1.30;;;;;;;;;;4997612;28;20040;-72
2023/08/16 08:00:33;;;;;;;4.28;1.42;;;;;;;;;;5031165;28;20081;-71
2023/08/16 08:02:59;;;;;;;3.67;1.55;;;;;;;;;;5030230;28;20543;-71
2023/08/16 08:05:24;;;;;;;3.63;1.60;;;;;;;;;;5029982;28;20099;-71
2023/08/16 08:07:51;;;;;;;5.50;1.55;;;;;;;;;;5030264;28;20062;-71
2023/08/16 08:10:17;;;;;;;9.77;1.58;;;;;;;;;;5033761;28;20051;-71
2023/08/16 08:12:44;;;;;;;9.38;1.70;;;;;;;;;;5034734;28;20045;-71
2023/08/16 08:15:10;;;;;;;4.70;1.30;;;;;;;;;;5034895;28;20464;-71
2023/08/16 08:17:36;;;;;;;5.18;1.30;;;;;;;;;;5034662;28;20037;-71
2023/08/16 08:20:03;;;;;;;5.63;2.15;;;;;;;;;;5034998;28;20069;-71
2023/08/16 08:22:29;;;;;;;5.80;1.60;;;;;;;;;;5034847;28;20119;-72
2023/08/16 08:24:55;;;;;;;5.75;1.20;;;;;;;;;;5034415;28;20100;-71
2023/08/16 08:27:21;;;;;;;5.43;1.42;;;;;;;;;;5035011;28;20041;-71
2023/08/16 08:29:47;;;;;;;4.60;1.20;;;;;;;;;;5033827;28;20061;-71
2023/08/16 08:32:12;;;;;;;5.68;1.33;;;;;;;;;;5033720;28;20121;-71
2023/08/16 08:34:38;;;;;;;5.07;1.30;;;;;;;;;;5017167;28;20052;-71
2023/08/16 08:37:04;;;;;;;2.20;0.95;;;;;;;;;;5034483;28;20092;-71
2023/08/16 08:39:30;;;;;;;1.77;0.98;;;;;;;;;;5034453;28;20187;-71
2023/08/16 08:41:56;;;;;;;3.17;1.30;;;;;;;;;;5034378;28;20041;-71
2023/08/16 08:44:22;;;;;;;6.20;1.00;;;;;;;;;;5034710;28;20042;-72
2023/08/16 08:46:48;;;;;;;6.03;1.10;;;;;;;;;;5033541;28;20036;-72
2023/08/16 08:49:19;;;;;;;2.65;1.00;;;;;;;;;;5034272;28;20388;-71
2023/08/16 08:51:44;;;;;;;3.65;0.90;;;;;;;;;;5034106;28;20110;-71
2023/08/16 08:54:11;;;;;;;5.20;1.10;;;;;;;;;;5033132;28;20448;-71
2023/08/16 08:56:38;;;;;;;1.67;1.10;;;;;;;;;;5033394;28;20049;-71
2023/08/16 08:59:05;;;;;;;7.03;1.17;;;;;;;;;;5034201;28;20045;-71
2023/08/16 09:01:30;;;;;;;3.85;0.88;;;;;;;;;;5033734;28;20514;-71
2023/08/16 09:03:59;;;;;;;4.50;1.25;;;;;;;;;;5032920;28;20053;-71
2023/08/16 09:06:24;;;;;;;2.55;1.10;;;;;;;;;;5033919;28;20037;-71
2023/08/16 09:08:50;;;;;;;4.97;1.25;;;;;;;;;;5033865;28;20503;-71
2023/08/16 09:11:16;;;;;;;4.97;1.20;;;;;;;;;;5033808;28;20041;-71
2023/08/16 09:13:41;;;;;;;4.82;1.27;;;;;;;;;;5032585;28;20087;-71
2023/08/16 09:16:07;;;;;;;5.03;1.15;;;;;;;;;;5033754;28;20098;-70
2023/08/16 09:18:32;;;;;;;10.75;1.10;;;;;;;;;;5032549;28;20029;-71
2023/08/16 09:20:59;;;;;;;5.47;1.20;;;;;;;;;;5031305;28;20045;-72
2023/08/16 09:23:24;;;;;;;3.15;1.10;;;;;;;;;;5033493;28;20133;-71
2023/08/16 09:25:51;;;;;;;5.45;1.23;;;;;;;;;;5016193;28;20398;-72
2023/08/16 09:28:16;;;;;;;3.35;1.00;;;;;;;;;;5033349;28;20034;-71
2023/08/16 09:30:42;;;;;;;3.08;0.95;;;;;;;;;;5033212;28;20098;-71
2023/08/16 09:33:12;;;;;;;8.15;0.88;;;;;;;;;;5033372;28;20033;-72
2023/08/16 09:35:38;;;;;;;6.43;1.17;;;;;;;;;;5033321;28;20037;-73
2023/08/16 09:38:04;;;;;;;1.55;1.00;;;;;;;;;;5032269;28;20045;-71
2023/08/16 09:40:30;;;;;;;3.92;1.02;;;;;;;;;;5031996;28;20391;-72
2023/08/16 09:43:02;;;;;;;7.47;1.17;;;;;;;;;;5033148;28;20049;-71
2023/08/16 09:45:35;;;;;;;7.25;1.10;;;;;;;;;;5032293;28;20095;-71
2023/08/16 09:48:00;;;;;;;3.05;1.00;;;;;;;;;;5033039;28;20033;-70
2023/08/16 09:50:27;;;;;;;5.85;1.13;;;;;;;;;;5033039;28;20041;-71
2023/08/16 09:52:53;;;;;;;3.42;1.10;;;;;;;;;;5033114;28;20072;-71
2023/08/16 09:55:30;;;;;;;2.72;1.30;;;;;;;;;;5015524;28;20123;-71
2023/08/16 09:57:59;;;;;;;5.57;1.17;;;;;;;;;;5033431;28;20041;-71
2023/08/16 10:00:27;;;;;;;2.50;1.23;;;;;;;;;;5033186;28;20033;-71
2023/08/16 10:02:53;;;;;;;2.33;0.90;;;;;;;;;;5033005;28;20430;-71
2023/08/16 10:05:19;;;;;;;4.93;1.15;;;;;;;;;;5032573;28;20037;-71
2023/08/16 10:07:48;;;;;;;5.90;1.40;;;;;;;;;;5015132;28;20081;-71
2023/08/16 10:10:14;;;;;;;4.53;1.20;;;;;;;;;;5032621;28;20041;-71
2023/08/16 10:12:40;;;;;;;4.40;1.00;;;;;;;;;;5032460;28;20499;-71
2023/08/16 10:15:06;;;;;;;5.43;1.10;;;;;;;;;;5015348;28;20420;-71
2023/08/16 10:17:33;;;;;;;2.10;1.02;;;;;;;;;;5032582;28;20037;-72
2023/08/16 10:20:01;;;;;;;3.65;1.10;;;;;;;;;;5032865;28;20037;-71
2023/08/16 10:22:26;;;;;;;;;;;;;;;;;;5033154;28;20049;-71
2023/08/16 10:24:53;;;;;;;5.65;1.15;;;;;;;;;;4998382;28;19912;-72
2023/08/16 10:27:19;;;;;;;2.20;1.20;;;;;;;;;;5032409;28;20136;-71
2023/08/16 10:29:46;;;;;;;4.38;1.20;;;;;;;;;;5031452;28;20067;-71
2023/08/16 10:32:13;;;;;;;2.13;1.20;;;;;;;;;;5031101;28;20041;-72
2023/08/16 10:34:39;;;;;;;5.07;1.23;;;;;;;;;;5031173;28;20033;-71
2023/08/16 10:37:06;;;;;;;3.10;1.37;;;;;;;;;;5031474;28;20047;-71
2023/08/16 10:39:32;;;;;;;3.42;1.00;;;;;;;;;;5031314;28;20116;-72
2023/08/16 10:42:05;;;;;;;4.30;1.20;;;;;;;;;;5031354;28;20071;-71
2023/08/16 10:44:31;;;;;;;6.22;1.40;;;;;;;;;;5032236;28;20034;-71
2023/08/16 10:46:58;;;;;;;6.32;1.25;;;;;;;;;;5032415;28;20044;-71
2023/08/16 10:49:34;;;;;;;3.25;1.02;;;;;;;;;;5014817;28;20473;-71
2023/08/16 10:52:00;;;;;;;6.70;1.33;;;;;;;;;;5014775;28;20029;-70
2023/08/16 10:54:34;;;;;;;2.63;1.40;;;;;;;;;;5031335;28;20102;-71
2023/08/16 10:57:06;;;;;;;6.00;1.30;;;;;;;;;;5014528;28;20049;-70
2023/08/16 10:59:38;;;;;;;8.23;1.42;;;;;;;;;;4998452;28;20037;-70
2023/08/16 11:02:17;;;;;;;7.13;1.58;;;;;;;;;;5031985;28;20175;-73
2023/08/16 11:04:46;;;;;;;8.98;1.50;;;;;;;;;;5031140;28;20044;-70
2023/08/16 11:07:12;;;;;;;8.48;1.30;;;;;;;;;;4998275;28;20032;-71
2023/08/16 11:09:42;;;;;;;4.95;1.10;;;;;;;;;;5031049;28;20045;-71
2023/08/16 11:12:08;;;;;;;3.58;1.20;;;;;;;;;;5014638;28;20033;-71
2023/08/16 11:14:34;;;;;;;10.73;1.30;;;;;;;;;;5031818;28;20095;-71
2023/08/16 11:16:59;;;;;;;2.38;1.20;;;;;;;;;;5014599;28;20472;-70
2023/08/16 11:19:25;;;;;;;3.20;1.10;;;;;;;;;;5031981;28;20066;-71
2023/08/16 11:21:51;;;;;;;2.50;1.10;;;;;;;;;;5031525;28;20610;-71
2023/08/16 11:24:17;;;;;;;6.15;1.42;;;;;;;;;;5031868;28;20039;-71
2023/08/16 11:26:43;;;;;;;5.78;1.40;;;;;;;;;;5031067;28;20120;-70
2023/08/16 11:29:09;;;;;;;2.95;1.30;;;;;;;;;;5032185;28;20037;-70
2023/08/16 11:31:36;;;;;;;2.22;1.30;;;;;;;;;;5014522;28;20433;-70
2023/08/16 11:34:07;;;;;;;1.85;1.38;;;;;;;;;;5030888;28;20353;-70
2023/08/16 11:36:35;;;;;;;4.70;1.45;;;;;;;;;;5029793;28;20045;-69
2023/08/16 11:39:01;;;;;;;3.30;1.30;;;;;;;;;;5030064;28;20048;-70
2023/08/16 11:41:26;;;;;;;3.22;1.40;;;;;;;;;;5029750;28;20650;-70
2023/08/16 11:44:01;;;;;;;4.88;1.40;;;;;;;;;;5029725;28;20033;-70
2023/08/16 11:46:27;;;;;;;2.85;1.42;;;;;;;;;;5017649;28;20558;-70
2023/08/16 11:48:54;;;;;;;5.32;1.40;;;;;;;;;;5033628;28;20100;-70
2023/08/16 11:51:19;;;;;;;4.70;1.50;;;;;;;;;;5016933;28;20056;-69
2023/08/16 11:53:45;;;;;;;5.28;1.50;;;;;;;;;;5017078;28;20038;-69
2023/08/16 11:56:12;;;;;;;6.57;1.52;;;;;;;;;;5033520;28;20055;-69
2023/08/16 11:58:48;;;;;;;3.97;1.60;;;;;;;;;;4984494;28;20049;-70
2023/08/16 12:01:16;;;;;;;8.45;1.60;;;;;;;;;;5000420;28;20038;-70
2023/08/16 12:03:45;;;;;;;3.88;1.95;;;;;;;;;;5033446;28;20046;-70
2023/08/16 12:06:11;;;;;;;5.23;1.63;;;;;;;;;;5016662;28;20051;-70
2023/08/16 12:08:50;;;;;;;6.53;1.85;;;;;;;;;;5034617;28;20299;-69
2023/08/16 12:11:26;;;;;;;5.00;1.67;;;;;;;;;;5034111;28;20072;-69
2023/08/16 12:13:52;;;;;;;8.40;1.90;;;;;;;;;;5034900;28;20041;-70
2023/08/16 12:16:18;;;;;;;3.53;1.75;;;;;;;;;;5017498;28;20048;-70
2023/08/16 12:18:43;;;;;;;6.05;1.88;;;;;;;;;;5033720;28;20037;-69
2023/08/16 12:21:09;;;;;;;6.45;1.90;;;;;;;;;;5034643;28;20041;-69
2023/08/16 12:23:34;;;;;;;5.18;1.65;;;;;;;;;;5001165;28;20045;-69
2023/08/16 12:26:00;;;;;;;4.75;1.80;;;;;;;;;;5034940;28;20091;-69
2023/08/16 12:28:26;;;;;;;6.72;1.65;;;;;;;;;;5033756;28;20040;-70
2023/08/16 12:30:52;;;;;;;5.28;1.60;;;;;;;;;;5034677;28;20136;-69
2023/08/16 12:33:17;;;;;;;9.45;1.90;;;;;;;;;;5034392;28;20128;-69
2023/08/16 12:35:43;;;;;;;3.58;1.92;;;;;;;;;;5017190;28;20467;-69
2023/08/16 12:38:09;;;;;;;3.25;1.80;;;;;;;;;;5033620;28;20034;-69
2023/08/16 12:40:38;;;;;;;3.83;1.73;;;;;;;;;;5034462;28;20099;-69
2023/08/16 12:43:04;;;;;;;2.92;1.60;;;;;;;;;;5034436;28;20041;-69
2023/08/16 12:45:29;;;;;;;6.88;1.80;;;;;;;;;;5034209;28;20025;-69
2023/08/16 12:47:55;;;;;;;8.40;2.05;;;;;;;;;;5033244;28;20041;-69
2023/08/16 12:50:21;;;;;;;4.78;1.77;;;;;;;;;;5016997;28;20107;-69
2023/08/16 12:52:46;;;;;;;3.65;2.10;;;;;;;;;;5016680;28;20033;-69
2023/08/16 12:55:12;;;;;;;3.58;1.83;;;;;;;;;;5033127;28;20440;-69
2023/08/16 12:57:39;;;;;;;9.15;2.30;;;;;;;;;;5034114;28;20029;-69
2023/08/16 13:00:06;;;;;;;3.15;1.77;;;;;;;;;;5034663;28;20045;-69
2023/08/16 13:02:32;;;;;;;6.38;2.00;;;;;;;;;;5033347;28;20512;-70
2023/08/16 13:04:58;;;;;;;5.00;2.00;;;;;;;;;;5032902;28;20073;-69
2023/08/16 13:07:23;;;;;;;3.63;2.17;;;;;;;;;;5032683;28;20053;-69
2023/08/16 13:09:49;;;;;;;8.10;1.80;;;;;;;;;;5034097;28;20033;-69
2023/08/16 13:12:15;;;;;;;4.15;1.85;;;;;;;;;;5016521;28;20033;-70
2023/08/16 13:14:40;;;;;;;11.15;2.15;;;;;;;;;;5033623;28;20067;-69
2023/08/16 13:17:08;;;;;;;5.78;1.85;;;;;;;;;;5034200;28;20041;-69
2023/08/16 13:19:34;;;;;;;6.53;1.80;;;;;;;;;;5049536;28;20079;-69
2023/08/16 13:21:59;;;;;;;7.20;2.13;;;;;;;;;;5033474;28;20088;-69
2023/08/16 13:24:25;;;;;;;7.53;2.28;;;;;;;;;;5033810;28;20037;-69
2023/08/16 13:26:51;;;;;;;5.45;1.98;;;;;;;;;;5016312;28;20040;-69
2023/08/16 13:29:17;;;;;;;13.32;2.35;;;;;;;;;;5032773;28;20033;-69
2023/08/16 13:31:43;;;;;;;12.15;1.98;;;;;;;;;;5032314;28;20124;-69
2023/08/16 13:34:09;;;;;;;5.03;1.80;;;;;;;;;;5033569;28;20033;-69
2023/08/16 13:36:35;;;;;;;4.88;1.67;;;;;;;;;;5032814;28;20522;-69
2023/08/16 13:39:01;;;;;;;8.95;1.92;;;;;;;;;;5016054;28;20084;-70
2023/08/16 13:41:27;;;;;;;3.88;1.52;;;;;;;;;;5034807;28;20037;-69
2023/08/16 13:43:53;;;;;;;3.38;1.70;;;;;;;;;;5033012;28;20029;-69
2023/08/16 13:46:18;;;;;;;8.57;1.60;;;;;;;;;;5032315;28;20039;-69
2023/08/16 13:48:44;;;;;;;5.32;1.70;;;;;;;;;;5033192;28;20072;-69
2023/08/16 13:51:10;;;;;;;5.50;1.50;;;;;;;;;;4999619;28;20368;-69
2023/08/16 13:53:35;;;;;;;5.80;2.05;;;;;;;;;;5032246;28;20065;-69
2023/08/16 13:56:02;;;;;;;4.43;1.73;;;;;;;;;;5015657;28;20041;-69
2023/08/16 13:58:29;;;;;;;9.57;2.05;;;;;;;;;;5015788;28;20550;-69
2023/08/16 14:00:55;;;;;;;6.15;1.90;;;;;;;;;;5032984;28;20037;-69
2023/08/16 14:03:20;;;;;;;6.95;1.92;;;;;;;;;;5015470;28;20229;-69
2023/08/16 14:05:47;;;;;;;5.43;2.47;;;;;;;;;;5031740;28;20109;-69
2023/08/16 14:08:13;;;;;;;5.35;1.55;;;;;;;;;;5031361;28;20463;-69
2023/08/16 14:10:40;;;;;;;7.22;1.67;;;;;;;;;;5033222;28;20041;-69
2023/08/16 14:13:05;;;;;;;8.73;2.22;;;;;;;;;;5031890;28;20503;-69
2023/08/16 14:15:32;;;;;;;7.55;1.83;;;;;;;;;;5032762;28;20092;-69
2023/08/16 14:17:57;;;;;;;5.20;1.60;;;;;;;;;;4999045;28;20398;-69
2023/08/16 14:20:23;;;;;;;4.47;1.85;;;;;;;;;;4998816;28;20034;-69
2023/08/16 14:22:49;;;;;;;7.18;1.90;;;;;;;;;;5032712;28;20076;-69
2023/08/16 14:25:15;;;;;;;4.72;1.90;;;;;;;;;;5032716;28;20041;-70
2023/08/16 14:27:40;;;;;;;6.03;1.90;;;;;;;;;;5032989;28;20048;-69
2023/08/16 14:30:06;;;;;;;2.85;1.55;;;;;;;;;;5032702;28;20387;-70
2023/08/16 14:32:32;;;;;;;2.83;1.70;;;;;;;;;;5015071;28;20057;-70
2023/08/16 14:34:58;;;;;;;7.10;1.75;;;;;;;;;;5031817;28;20037;-69
2023/08/16 14:37:24;;;;;;;4.47;2.00;;;;;;;;;;5033857;28;20116;-69